Nearby METAR Reports

 

KSFO - San Francisco, California, USA
Distance from station: NNW 8km
Updated: Sat, 25-Jan-2020 3:56pm PST
Mostly cloudy
Mostly cloudy
 Wind from WNW
Wind: WNW 8 mph , 13 km/h
Temperature: 61°F , 16°C
Dew Point: 54°F , 12°C
Humidity: 77%
Barometer: 30.08 inHg , 1018.6 hPa
Clouds: Mostly cloudy
Visibility: 10 miles , 16 km
Cloud details: Partly cloudy 2000 ft
Mostly cloudy 5500 ft
Mostly cloudy 15000 ft
2020/01/25 23:56 KSFO 252356Z 29007KT 10SM SCT020 BKN055 BKN150 16/12 A3008 RMK AO2 SLP185 T01610122 10161 20128 56012
KSQL - San Carlos Airpo, California, USA
Distance from station: ESE 8km
Updated: Sat, 25-Jan-2020 3:47pm PST
Mostly cloudy
Mostly cloudy
 Wind from varies
Wind: varies 3 mph , 6 km/h
Temperature: 63°F , 17°C
Dew Point: 55°F , 13°C
Humidity: 77%
Barometer: 30.08 inHg , 1018.6 hPa
Clouds: Mostly cloudy
Visibility: 10 miles , 16 km
Cloud details: Few Clouds 3000 ft
Mostly cloudy 12000 ft
2020/01/25 23:47 KSQL 252347Z VRB03KT 10SM FEW030 BKN120 17/13 A3008
 
KHAF - Half Moon Bay, California, USA
Distance from station: WSW 15km
Updated: Sat, 25-Jan-2020 4:15pm PST
Few Clouds
Few Clouds
 Wind from calm
Wind: Calm
Temperature: 57°F , 14°C
Dew Point: 54°F , 12°C
Humidity: 88%
Barometer: 30.10 inHg , 1019.3 hPa
Clouds: Few Clouds
Visibility: 10 miles , 16 km
Cloud details: Few Clouds 1600 ft
2020/01/26 00:15 KHAF 260015Z AUTO 00000KT 10SM FEW016 14/12 A3010 RMK AO2
KOAK - Oakland, California, USA
Distance from station: NNE 21km
Updated: Sat, 25-Jan-2020 3:53pm PST
Mostly cloudy
Mostly cloudy
 Wind from WNW
Wind: WNW 5 mph , 7 km/h
Temperature: 63°F , 17°C
Dew Point: 54°F , 12°C
Humidity: 73%
Barometer: 30.08 inHg , 1018.6 hPa
Clouds: Mostly cloudy
Visibility: 10 miles , 16 km
Cloud details: Few Clouds 1500 ft
Mostly cloudy 14000 ft
Mostly cloudy 20000 ft
2020/01/25 23:53 KOAK 252353Z 30004KT 10SM FEW015 BKN140 BKN200 17/12 A3008 RMK AO2 SLP187 T01720117 10172 20133 56013 $
 
KPAO - Palo Alto, California, USA
Distance from station: ESE 21km
Updated: Sat, 25-Jan-2020 3:47pm PST
Mostly cloudy
Mostly cloudy
 Wind from NW
Wind: NW 7 mph , 11 km/h
Temperature: 63°F , 17°C
Dew Point: 55°F , 13°C
Humidity: 77%
Barometer: 30.07 inHg , 1018.3 hPa
Clouds: Mostly cloudy
Visibility: 10 miles , 16 km
Cloud details: Few Clouds 3000 ft
Mostly cloudy 12000 ft
2020/01/25 23:47 KPAO 252347Z 32006KT 10SM FEW030 BKN120 17/13 A3007
KHWD - Hayward, California, USA
Distance from station: NE 23km
Updated: Sat, 25-Jan-2020 3:54pm PST
Mostly cloudy
Mostly cloudy
 Wind from NW
Wind: NW 6 mph , 9 km/h
Temperature: 61°F , 16°C
Dew Point: 54°F , 12°C
Humidity: 77%
Barometer: 30.07 inHg , 1018.3 hPa
Clouds: Mostly cloudy
Visibility: 10 miles , 16 km
Cloud details: Mostly cloudy 14000 ft
2020/01/25 23:54 KHWD 252354Z 31005KT 10SM BKN140 16/12 A3007 RMK AO2 SLP194 T01610117 10178 20122 56016
 
KNUQ - Moffett Nas/Mtn, California, USA
Distance from station: ESE 30km
Updated: Thu, 21-Nov-2019 8:56am PST
NOT Current

 
Barometer: 29.86 inHg , 1011.2 hPa
2019/11/21 16:56 KNUQ 211656Z AUTO A2986 RMK AO2 SLP116 PWINO $
KSJC - San Jose, California, USA
Distance from station: ESE 42km
Updated: Sat, 25-Jan-2020 3:53pm PST
Mostly cloudy
Mostly cloudy
 Wind from NW
Wind: NW 3 mph , 6 km/h
Temperature: 64°F , 18°C
Dew Point: 54°F , 12°C
Humidity: 68%
Barometer: 30.07 inHg , 1018.3 hPa
Clouds: Mostly cloudy
Visibility: 10 miles , 16 km
Cloud details: Few Clouds 2400 ft
Partly cloudy 9000 ft
Mostly cloudy 16000 ft
2020/01/25 23:53 KSJC 252353Z 32003KT 10SM FEW024 SCT090 BKN160 18/12 A3007 RMK AO2 SLP180 T01780122 10189 20133 56018 $
 
KLVK - Livermore, California, USA
Distance from station: ENE 49km
Updated: Sat, 25-Jan-2020 3:53pm PST
Haze, Clear
Haze, Clear
 Wind from ENE
Wind: ENE 10 mph , 17 km/h
Temperature: 61°F , 16°C
Dew Point: 54°F , 12°C
Humidity: 77%
Barometer: 30.06 inHg , 1017.9 hPa
Summary: Haze
Clouds: Clear
Visibility: 6 miles , 10 km
2020/01/25 23:53 KLVK 252353Z 06009KT 6SM HZ CLR 16/12 A3006 RMK AO2 SLP178 T01560122 10183 20133 56016
KRHV - San Jose/Reid, California, USA
Distance from station: ESE 53km
Updated: Sat, 25-Jan-2020 3:47pm PST
Mostly cloudy
Mostly cloudy
 Wind from NW
Wind: NW 5 mph , 7 km/h
Temperature: 64°F , 18°C
Dew Point: 55°F , 13°C
Humidity: 73%
Barometer: 30.07 inHg , 1018.3 hPa
Clouds: Mostly cloudy
Visibility: 10 miles , 16 km
Cloud details: Partly cloudy 9000 ft
Mostly cloudy 16000 ft
2020/01/25 23:47 KRHV 252347Z 31004KT 10SM SCT090 BKN160 18/13 A3007
 
KCCR - Concord, California, USA
Distance from station: NNE 56km
Updated: Sat, 25-Jan-2020 3:53pm PST
Clear
Clear
 Wind from N
Wind: N 8 mph , 13 km/h
Temperature: 61°F , 16°C
Dew Point: 54°F , 12°C
Humidity: 77%
Barometer: 30.07 inHg , 1018.3 hPa
Clouds: Clear
Visibility: 8 miles , 13 km
2020/01/25 23:53 KCCR 252353Z 01007KT 8SM CLR 16/12 A3007 RMK AO2 SLP170 T01610117 10178 20139 56017
KDVO - Novato/Gnoss Fld, California, USA
Distance from station: NNW 70km
Updated: Sat, 25-Jan-2020 4:15pm PST
Mostly cloudy
Mostly cloudy
 Wind from calm
Wind: Calm
Temperature: 61°F , 16°C
Dew Point: 57°F , 14°C
Humidity: 88%
Barometer: 30.08 inHg , 1018.6 hPa
Clouds: Mostly cloudy
Visibility: 10 miles , 16 km
Cloud details: Partly cloudy 5500 ft
Mostly cloudy 7000 ft
2020/01/26 00:15 KDVO 260015Z AUTO 00000KT 10SM SCT055 BKN070 16/14 A3008 RMK AO2
 
KAPC - Napa, California, USA
Distance from station: N 73km
Updated: Sat, 25-Jan-2020 3:54pm PST
Clear
Clear
 Wind from WSW
Wind: WSW 6 mph , 9 km/h
Temperature: 59°F , 15°C
Dew Point: 54°F , 12°C
Humidity: 82%
Barometer: 30.09 inHg , 1019 hPa
Clouds: Clear
Visibility: 10 miles , 16 km
2020/01/25 23:54 KAPC 252354Z 24005KT 10SM CLR 15/12 A3009 RMK AO2 SLP179 T01500122 10161 20133 56013